Time,TemperatureF,DewpointF,PressureIn,WindDirection,WindDirectionDegrees,WindSpeedMPH,WindSpeedGustMPH,Humidity,HourlyPrecipIn,Conditions,Clouds,dailyrainin,SoftwareType,DateUTC
2013-01-19 00:13:00,37.0,25.0,-100.00,North,5,13.0,23.0,62,-99.99,,,-99.99,,2013-01-19 05:13:00,
2013-01-19 00:23:00,37.0,25.0,-100.00,North,5,13.0,23.0,62,-99.99,,,-99.99,,2013-01-19 05:23:00,
2013-01-19 00:43:00,37.0,25.0,-100.00,North,5,12.0,25.0,61,-99.99,,,-99.99,,2013-01-19 05:43:00,
2013-01-19 00:53:00,37.0,25.0,-100.00,North,5,12.0,25.0,61,-99.99,,,-99.99,,2013-01-19 05:53:00,
2013-01-19 01:03:00,36.0,25.0,-100.00,North,5,11.0,18.0,63,-99.99,,,-99.99,,2013-01-19 06:03:00,
2013-01-19 01:12:00,36.0,25.0,-100.00,North,5,11.0,18.0,63,-99.99,,,-99.99,,2013-01-19 06:12:00,
2013-01-19 01:43:00,36.0,26.0,-100.00,North,5,13.0,18.0,64,-99.99,,,-99.99,,2013-01-19 06:43:00,
2013-01-19 01:51:00,36.0,25.0,-100.00,North,5,12.0,17.0,65,-99.99,,,-99.99,,2013-01-19 06:51:00,
2013-01-19 01:52:00,36.0,26.0,-100.00,North,5,13.0,18.0,64,-99.99,,,-99.99,,2013-01-19 06:52:00,
2013-01-19 02:12:00,36.0,25.0,-100.00,North,5,11.0,17.0,65,-99.99,,,-99.99,,2013-01-19 07:12:00,
2013-01-19 02:23:00,36.0,25.0,-100.00,North,5,11.0,17.0,65,-99.99,,,-99.99,,2013-01-19 07:23:00,
2013-01-19 02:33:00,36.0,25.0,-100.00,North,5,12.0,17.0,65,-99.99,,,-99.99,,2013-01-19 07:33:00,
2013-01-19 02:43:00,36.0,25.0,-100.00,North,5,12.0,17.0,65,-99.99,,,-99.99,,2013-01-19 07:43:00,
2013-01-19 03:12:00,37.0,25.0,-100.00,North,5,9.0,21.0,63,-99.99,,,-99.99,,2013-01-19 08:12:00,
2013-01-19 03:22:00,37.0,25.0,-100.00,North,5,9.0,21.0,63,-99.99,,,-99.99,,2013-01-19 08:22:00,
2013-01-19 03:43:00,38.0,25.0,-100.00,North,5,15.0,20.0,60,-99.99,,,-99.99,,2013-01-19 08:43:00,
2013-01-19 03:53:00,38.0,25.0,-100.00,North,5,15.0,20.0,60,-99.99,,,-99.99,,2013-01-19 08:53:00,
2013-01-19 04:12:00,39.0,25.0,-100.00,North,5,12.0,21.0,58,-99.99,,,-99.99,,2013-01-19 09:12:00,
2013-01-19 04:23:00,39.0,25.0,-100.00,North,5,12.0,21.0,58,-99.99,,,-99.99,,2013-01-19 09:23:00,
2013-01-19 04:43:00,39.0,25.0,-100.00,North,5,12.0,21.0,58,-99.99,,,-99.99,,2013-01-19 09:43:00,
2013-01-19 04:52:00,39.0,25.0,-100.00,North,5,12.0,21.0,58,-99.99,,,-99.99,,2013-01-19 09:52:00,
2013-01-19 05:12:00,39.0,26.0,-100.00,North,5,14.0,22.0,59,-99.99,,,-99.99,,2013-01-19 10:12:00,
2013-01-19 05:23:00,39.0,26.0,-100.00,North,5,14.0,22.0,59,-99.99,,,-99.99,,2013-01-19 10:23:00,
2013-01-19 05:43:00,38.0,26.0,-100.00,North,5,11.0,26.0,59,-99.99,,,-99.99,,2013-01-19 10:43:00,
2013-01-19 05:52:00,38.0,26.0,-100.00,North,5,11.0,26.0,59,-99.99,,,-99.99,,2013-01-19 10:52:00,
2013-01-19 06:12:00,38.0,26.0,-100.00,North,5,12.0,22.0,60,-99.99,,,-99.99,,2013-01-19 11:12:00,
2013-01-19 06:26:00,38.0,26.0,-100.00,North,5,11.0,19.0,62,-99.99,,,-99.99,,2013-01-19 11:26:00,
2013-01-19 07:48:00,38.0,26.0,-100.00,North,5,11.0,21.0,62,-99.99,,,-99.99,,2013-01-19 12:48:00,
2013-01-19 07:53:00,38.0,26.0,-100.00,North,5,11.0,21.0,62,-99.99,,,-99.99,,2013-01-19 12:53:00,
2013-01-19 08:13:00,38.0,26.0,-100.00,North,5,11.0,19.0,63,-99.99,,,-99.99,,2013-01-19 13:13:00,
2013-01-19 08:23:00,38.0,26.0,-100.00,North,5,11.0,19.0,63,-99.99,,,-99.99,,2013-01-19 13:23:00,
2013-01-19 08:34:00,38.0,26.0,-100.00,North,5,12.0,16.0,63,-99.99,,,-99.99,,2013-01-19 13:34:00,
2013-01-19 08:43:00,38.0,26.0,-100.00,North,5,12.0,16.0,63,-99.99,,,-99.99,,2013-01-19 13:43:00,
2013-01-19 08:53:00,38.0,26.0,-100.00,North,5,12.0,16.0,63,-99.99,,,-99.99,,2013-01-19 13:53:00,
2013-01-19 09:13:00,38.0,27.0,-100.00,North,5,12.0,19.0,63,-99.99,,,-99.99,,2013-01-19 14:13:00,
2013-01-19 09:23:00,38.0,27.0,-100.00,North,5,12.0,19.0,63,-99.99,,,-99.99,,2013-01-19 14:23:00,
2013-01-19 09:43:00,40.0,28.0,-100.00,North,5,12.0,19.0,61,-99.99,,,-99.99,,2013-01-19 14:43:00,
2013-01-19 09:53:00,40.0,28.0,-100.00,North,5,12.0,19.0,61,-99.99,,,-99.99,,2013-01-19 14:53:00,
2013-01-19 10:33:00,43.0,29.0,-100.00,North,5,14.0,24.0,58,-99.99,,,-99.99,,2013-01-19 15:33:00,
2013-01-19 10:43:00,43.0,29.0,-100.00,North,5,14.0,24.0,58,-99.99,,,-99.99,,2013-01-19 15:43:00,
2013-01-19 10:53:00,43.0,29.0,-100.00,North,5,14.0,24.0,58,-99.99,,,-99.99,,2013-01-19 15:53:00,
2013-01-19 11:13:00,44.0,30.0,-100.00,North,5,11.0,20.0,56,-99.99,,,-99.99,,2013-01-19 16:13:00,
2013-01-19 11:23:00,44.0,30.0,-100.00,North,5,11.0,20.0,56,-99.99,,,-99.99,,2013-01-19 16:23:00,
2013-01-19 11:26:00,47.0,31.0,-100.00,North,5,12.0,22.0,53,-99.99,,,-99.99,,2013-01-19 16:26:00,
2013-01-19 11:43:00,45.0,30.0,-100.00,North,5,16.0,26.0,54,-99.99,,,-99.99,,2013-01-19 16:43:00,
2013-01-19 11:53:00,45.0,30.0,-100.00,North,5,16.0,26.0,54,-99.99,,,-99.99,,2013-01-19 16:53:00,
2013-01-19 12:23:00,47.0,31.0,-100.00,North,5,12.0,22.0,53,-99.99,,,-99.99,,2013-01-19 17:23:00,
2013-01-19 12:26:00,49.0,31.0,-100.00,North,5,14.0,26.0,50,-99.99,,,-99.99,,2013-01-19 17:26:00,
2013-01-19 12:49:00,48.0,31.0,-100.00,North,5,17.0,30.0,51,-99.99,,,-99.99,,2013-01-19 17:49:00,
2013-01-19 13:14:00,49.0,31.0,-100.00,North,5,14.0,26.0,50,-99.99,,,-99.99,,2013-01-19 18:14:00,
2013-01-19 14:25:00,51.0,33.0,-100.00,North,5,11.0,21.0,50,-99.99,,,-99.99,,2013-01-19 19:25:00,
2013-01-19 14:54:00,51.0,33.0,-100.00,North,5,12.0,22.0,50,-99.99,,,-99.99,,2013-01-19 19:54:00,
2013-01-19 15:20:00,51.0,33.0,-100.00,North,5,11.0,21.0,50,-99.99,,,-99.99,,2013-01-19 20:20:00,
2013-01-19 15:25:00,51.0,33.0,-100.00,North,5,11.0,35.0,51,-99.99,,,-99.99,,2013-01-19 20:25:00,
2013-01-19 15:49:00,51.0,33.0,-100.00,North,5,11.0,24.0,50,-99.99,,,-99.99,,2013-01-19 20:49:00,
2013-01-19 15:54:00,49.0,33.0,-100.00,North,5,8.0,19.0,54,-99.99,,,-99.99,,2013-01-19 20:54:00,
2013-01-19 15:55:00,51.0,33.0,-100.00,North,5,11.0,24.0,50,-99.99,,,-99.99,,2013-01-19 20:55:00,
2013-01-19 16:15:00,51.0,33.0,-100.00,North,5,11.0,35.0,51,-99.99,,,-99.99,,2013-01-19 21:15:00,
2013-01-19 16:25:00,48.0,33.0,-100.00,North,5,11.0,18.0,55,-99.99,,,-99.99,,2013-01-19 21:25:00,
2013-01-19 16:46:00,49.0,33.0,-100.00,North,5,8.0,19.0,54,-99.99,,,-99.99,,2013-01-19 21:46:00,
2013-01-19 16:51:00,47.0,34.0,-100.00,North,5,9.0,16.0,58,-99.99,,,-99.99,,2013-01-19 21:51:00,
2013-01-19 17:20:00,48.0,33.0,-100.00,North,5,11.0,18.0,55,-99.99,,,-99.99,,2013-01-19 22:20:00,
2013-01-19 17:25:00,47.0,34.0,-100.00,North,5,8.0,18.0,60,-99.99,,,-99.99,,2013-01-19 22:25:00,
2013-01-19 17:35:00,47.0,34.0,-100.00,North,5,9.0,16.0,58,-99.99,,,-99.99,,2013-01-19 22:35:00,
2013-01-19 17:48:00,47.0,34.0,-100.00,North,5,9.0,16.0,58,-99.99,,,-99.99,,2013-01-19 22:48:00,
2013-01-19 17:53:00,46.0,34.0,-100.00,North,5,9.0,17.0,61,-99.99,,,-99.99,,2013-01-19 22:53:00,
2013-01-19 18:15:00,47.0,34.0,-100.00,North,5,8.0,18.0,60,-99.99,,,-99.99,,2013-01-19 23:15:00,
2013-01-19 18:25:00,45.0,34.0,-100.00,North,5,10.0,15.0,63,-99.99,,,-99.99,,2013-01-19 23:25:00,
2013-01-19 18:35:00,46.0,34.0,-100.00,North,5,9.0,17.0,61,-99.99,,,-99.99,,2013-01-19 23:35:00,
2013-01-19 18:48:00,46.0,34.0,-100.00,North,5,9.0,17.0,61,-99.99,,,-99.99,,2013-01-19 23:48:00,
2013-01-19 19:17:00,45.0,34.0,-100.00,North,5,10.0,15.0,63,-99.99,,,-99.99,,2013-01-20 00:17:00,
2013-01-19 19:24:00,45.0,34.0,-100.00,North,5,7.0,16.0,65,-99.99,,,-99.99,,2013-01-20 00:24:00,
2013-01-19 19:47:00,45.0,34.0,-100.00,North,5,7.0,16.0,64,-99.99,,,-99.99,,2013-01-20 00:47:00,
2013-01-19 19:54:00,45.0,34.0,-100.00,North,5,7.0,16.0,64,-99.99,,,-99.99,,2013-01-20 00:54:00,
2013-01-19 19:56:00,45.0,35.0,-100.00,North,5,7.0,15.0,67,-99.99,,,-99.99,,2013-01-20 00:56:00,
2013-01-19 20:05:00,45.0,34.0,-100.00,North,5,7.0,16.0,65,-99.99,,,-99.99,,2013-01-20 01:05:00,
2013-01-19 20:22:00,45.0,34.0,-100.00,North,5,7.0,16.0,65,-99.99,,,-99.99,,2013-01-20 01:22:00,
2013-01-19 20:26:00,45.0,35.0,-100.00,North,5,9.0,17.0,68,-99.99,,,-99.99,,2013-01-20 01:26:00,
2013-01-19 20:50:00,45.0,35.0,-100.00,North,5,7.0,15.0,67,-99.99,,,-99.99,,2013-01-20 01:50:00,
2013-01-19 21:15:00,45.0,35.0,-100.00,North,5,9.0,17.0,68,-99.99,,,-99.99,,2013-01-20 02:15:00,
2013-01-19 21:26:00,44.0,36.0,-100.00,North,5,11.0,19.0,72,-99.99,,,-99.99,,2013-01-20 02:26:00,
2013-01-19 21:45:00,44.0,35.0,-100.00,North,5,9.0,15.0,70,-99.99,,,-99.99,,2013-01-20 02:45:00,
2013-01-19 22:15:00,44.0,36.0,-100.00,North,5,11.0,19.0,72,-99.99,,,-99.99,,2013-01-20 03:15:00,
2013-01-19 22:26:00,43.0,36.0,-100.00,North,5,12.0,19.0,78,-99.99,,,-99.99,,2013-01-20 03:26:00,
2013-01-19 22:45:00,44.0,36.0,-100.00,North,5,12.0,22.0,74,-99.99,,,-99.99,,2013-01-20 03:45:00,
2013-01-19 23:15:00,43.0,36.0,-100.00,North,5,12.0,19.0,78,-99.99,,,-99.99,,2013-01-20 04:15:00,
2013-01-19 23:45:00,42.0,36.0,-100.00,North,5,11.0,20.0,81,-99.99,,,-99.99,,2013-01-20 04:45:00,
2013-01-19 23:53:00,42.0,36.0,-100.00,North,5,16.0,22.0,80,-99.99,,,-99.99,,2013-01-20 04:53:00,